Time;durP1;ratioP1;P1;durP2;ratioP2;P2;SDS_P1;SDS_P2;PMS_P1;PMS_P2;Temp;Humidity;BMP_temperature;BMP_pressure;BME280_temperature;BME280_humidity;BME280_pressure;Samples;Min_cycle;Max_cycle;Signal;HPM_P1;HPM_P2
2021/07/16 00:02:16;;;;;;;2.38;0.90;;;21.60;59.70;;;;;;5069956;28;20039;-73
2021/07/16 00:04:42;;;;;;;3.20;0.98;;;21.50;59.60;;;;;;5073462;28;20020;-73
2021/07/16 00:07:07;;;;;;;1.67;1.00;;;21.50;60.00;;;;;;5073057;28;20428;-73
2021/07/16 00:09:33;;;;;;;2.75;1.10;;;21.50;60.50;;;;;;5069481;28;20111;-73
2021/07/16 00:11:59;;;;;;;3.42;1.30;;;21.40;59.70;;;;;;5072462;28;20501;-73
2021/07/16 00:14:25;;;;;;;1.90;1.45;;;21.40;60.20;;;;;;5073265;28;20499;-73
2021/07/16 00:16:51;;;;;;;2.33;1.17;;;21.40;60.30;;;;;;5072862;28;20043;-73
2021/07/16 00:19:16;;;;;;;1.98;0.98;;;21.40;60.30;;;;;;5054325;28;20123;-74
2021/07/16 00:21:43;;;;;;;1.48;0.95;;;21.40;60.20;;;;;;5052874;28;20067;-73
2021/07/16 00:24:09;;;;;;;3.78;1.17;;;21.40;60.30;;;;;;5051331;28;20459;-73
2021/07/16 00:26:35;;;;;;;3.80;0.90;;;21.30;60.70;;;;;;5060414;28;20029;-73
2021/07/16 00:29:00;;;;;;;2.38;0.93;;;21.30;61.10;;;;;;5057859;28;20104;-73
2021/07/16 00:31:26;;;;;;;9.07;1.00;;;21.30;61.50;;;;;;5052928;28;20478;-73
2021/07/16 00:33:52;;;;;;;2.40;1.15;;;21.20;61.10;;;;;;5060358;28;20020;-73
2021/07/16 00:36:18;;;;;;;1.35;1.00;;;21.20;61.10;;;;;;5070665;28;20493;-73
2021/07/16 00:38:45;;;;;;;1.60;0.98;;;21.20;61.60;;;;;;5070167;28;20059;-73
2021/07/16 00:41:11;;;;;;;1.73;1.00;;;21.20;61.40;;;;;;5088301;28;20024;-73
2021/07/16 00:43:37;;;;;;;1.65;1.08;;;21.10;61.10;;;;;;5092230;28;20116;-73
2021/07/16 00:46:03;;;;;;;1.05;0.80;;;21.10;61.40;;;;;;5062640;28;20103;-73
2021/07/16 00:48:29;;;;;;;0.90;0.85;;;21.10;61.00;;;;;;5072426;28;20028;-73
2021/07/16 00:50:54;;;;;;;0.90;0.90;;;21.10;61.30;;;;;;5072564;28;20040;-73
2021/07/16 00:53:21;;;;;;;0.90;0.77;;;21.00;61.90;;;;;;5057776;28;20394;-73
2021/07/16 00:55:47;;;;;;;7.32;1.00;;;21.00;62.00;;;;;;5051367;28;20036;-73
2021/07/16 00:58:15;;;;;;;1.15;0.88;;;21.00;62.30;;;;;;5052453;28;20103;-72
2021/07/16 01:00:42;;;;;;;1.40;0.90;;;20.90;62.50;;;;;;5052536;28;20032;-73
2021/07/16 01:03:08;;;;;;;5.60;1.15;;;20.90;62.50;;;;;;5052287;28;20029;-74
2021/07/16 01:05:35;;;;;;;0.80;0.80;;;20.90;62.40;;;;;;5056454;28;20034;-73
2021/07/16 01:08:01;;;;;;;3.10;1.48;;;20.80;62.80;;;;;;5056355;28;20108;-73
2021/07/16 01:10:27;;;;;;;5.90;1.35;;;20.80;62.90;;;;;;5063918;28;20397;-73
2021/07/16 01:12:54;;;;;;;1.58;1.10;;;20.80;63.10;;;;;;5073447;28;20025;-74
2021/07/16 01:15:22;;;;;;;1.15;0.88;;;20.80;63.00;;;;;;5073359;28;20050;-73
2021/07/16 01:17:49;;;;;;;1.85;1.08;;;20.80;63.00;;;;;;5072578;28;20105;-73
2021/07/16 01:20:23;;;;;;;1.63;1.00;;;20.70;62.40;;;;;;5066136;28;20398;-73
2021/07/16 01:22:50;;;;;;;1.00;0.70;;;20.70;62.40;;;;;;5052390;28;20021;-73
2021/07/16 01:25:22;;;;;;;2.60;1.10;;;20.70;62.80;;;;;;5057995;28;20028;-73
2021/07/16 01:27:54;;;;;;;1.05;0.95;;;20.70;62.90;;;;;;5069742;28;20090;-73
2021/07/16 01:30:22;;;;;;;1.17;0.80;;;20.60;63.40;;;;;;5059478;28;20144;-73
2021/07/16 01:32:48;;;;;;;2.17;0.90;;;20.60;63.20;;;;;;5063073;28;20394;-73
2021/07/16 01:35:17;;;;;;;2.70;1.35;;;20.60;63.30;;;;;;5055892;28;20116;-73
2021/07/16 01:37:43;;;;;;;1.60;0.88;;;20.50;63.70;;;;;;5061206;28;20021;-73
2021/07/16 01:40:11;;;;;;;7.03;1.50;;;20.50;63.80;;;;;;5063944;28;20470;-73
2021/07/16 01:42:46;;;;;;;2.25;1.05;;;20.40;63.80;;;;;;5058137;28;20651;-73
2021/07/16 01:45:15;;;;;;;4.22;1.10;;;20.40;64.20;;;;;;5059759;28;20504;-73
2021/07/16 01:47:48;;;;;;;2.63;1.15;;;20.40;64.10;;;;;;5057985;28;20029;-73
2021/07/16 01:50:15;;;;;;;1.10;1.00;;;20.30;64.20;;;;;;5054410;28;20461;-72
2021/07/16 01:52:43;;;;;;;1.10;1.00;;;20.30;64.00;;;;;;5055965;28;20024;-72
2021/07/16 01:55:09;;;;;;;2.67;0.93;;;20.30;64.30;;;;;;5059787;28;20498;-72
2021/07/16 01:57:35;;;;;;;1.00;0.85;;;20.30;64.30;;;;;;5061415;28;20029;-73
2021/07/16 02:00:04;;;;;;;2.03;1.00;;;20.20;64.20;;;;;;5057130;28;20036;-74
2021/07/16 02:02:29;;;;;;;5.57;1.10;;;20.20;64.00;;;;;;5061772;28;20355;-73
2021/07/16 02:04:55;;;;;;;1.33;0.95;;;20.20;64.20;;;;;;5061051;28;20036;-73
2021/07/16 02:07:21;;;;;;;3.95;1.23;;;20.20;64.30;;;;;;5057372;28;20430;-73
2021/07/16 02:09:46;;;;;;;1.38;1.27;;;20.10;64.30;;;;;;5056983;28;20032;-72
2021/07/16 02:12:12;;;;;;;2.38;1.15;;;20.20;64.50;;;;;;5056569;28;20021;-73
2021/07/16 02:14:38;;;;;;;1.65;1.38;;;20.10;64.40;;;;;;5057354;28;20063;-73
2021/07/16 02:17:04;;;;;;;3.85;1.20;;;20.10;64.30;;;;;;5058239;28;20051;-72
2021/07/16 02:19:34;;;;;;;1.08;0.90;;;20.10;64.30;;;;;;5063438;28;20029;-73
2021/07/16 02:22:04;;;;;;;1.33;1.10;;;20.00;64.20;;;;;;5057493;28;20044;-73
2021/07/16 02:24:30;;;;;;;1.85;1.20;;;20.00;64.30;;;;;;5057359;28;20399;-73
2021/07/16 02:26:55;;;;;;;3.85;1.10;;;20.00;64.20;;;;;;5056635;28;20222;-73
2021/07/16 02:29:21;;;;;;;1.20;1.10;;;20.10;64.30;;;;;;5055855;28;20025;-73
2021/07/16 02:31:49;;;;;;;2.97;1.00;;;20.10;64.10;;;;;;5055379;28;20029;-72
2021/07/16 02:34:14;;;;;;;1.83;1.00;;;20.10;64.00;;;;;;5056582;28;20103;-72
2021/07/16 02:36:41;;;;;;;7.55;1.10;;;20.10;63.90;;;;;;5056673;28;20067;-73
2021/07/16 02:39:07;;;;;;;5.30;1.45;;;20.10;63.80;;;;;;5057062;28;20020;-73
2021/07/16 02:41:33;;;;;;;1.98;1.13;;;20.10;64.00;;;;;;5060243;28;20074;-73
2021/07/16 02:43:59;;;;;;;7.53;1.50;;;20.10;63.80;;;;;;5055763;28;20557;-73
2021/07/16 02:46:25;;;;;;;2.35;1.75;;;20.10;63.80;;;;;;5060611;28;20013;-73
2021/07/16 02:48:51;;;;;;;1.90;1.35;;;20.10;63.90;;;;;;5064941;28;20115;-72
2021/07/16 02:51:16;;;;;;;3.65;1.70;;;20.10;63.90;;;;;;5059797;28;20040;-72
2021/07/16 02:53:42;;;;;;;2.10;1.20;;;20.10;63.60;;;;;;5059820;28;20029;-73
2021/07/16 02:56:08;;;;;;;1.58;1.17;;;20.10;63.60;;;;;;5064017;28;20025;-73
2021/07/16 02:58:34;;;;;;;5.72;1.20;;;20.10;63.50;;;;;;5066822;28;20100;-73
2021/07/16 03:01:00;;;;;;;3.25;1.42;;;20.10;63.40;;;;;;5064649;28;20043;-73
2021/07/16 03:03:26;;;;;;;2.10;1.27;;;20.10;63.30;;;;;;5060280;28;20029;-73
2021/07/16 03:05:52;;;;;;;2.63;1.38;;;20.10;63.30;;;;;;5062721;28;20382;-72
2021/07/16 03:08:17;;;;;;;5.65;1.38;;;20.00;63.30;;;;;;5067968;28;20017;-73
2021/07/16 03:10:46;;;;;;;4.45;1.83;;;20.00;63.40;;;;;;5072891;28;20057;-73
2021/07/16 03:13:17;;;;;;;2.60;1.20;;;20.00;63.40;;;;;;5060008;28;20040;-73
2021/07/16 03:15:44;;;;;;;1.95;1.27;;;20.00;63.40;;;;;;5074997;28;20021;-73
2021/07/16 03:18:10;;;;;;;2.47;1.40;;;20.00;63.50;;;;;;5060226;28;20044;-73
2021/07/16 03:20:44;;;;;;;1.33;1.05;;;20.00;63.40;;;;;;5065986;28;20024;-72
2021/07/16 03:23:12;;;;;;;1.63;1.00;;;20.00;63.30;;;;;;5056090;28;20021;-74
2021/07/16 03:25:38;;;;;;;1.90;1.20;;;20.00;63.20;;;;;;5053084;28;20025;-73
2021/07/16 03:28:05;;;;;;;2.60;1.08;;;19.90;63.30;;;;;;5054444;28;20102;-73
2021/07/16 03:30:33;;;;;;;1.50;1.13;;;19.90;63.20;;;;;;5055557;28;20021;-73
2021/07/16 03:33:00;;;;;;;0.98;0.88;;;19.90;63.00;;;;;;5053852;28;20155;-73
2021/07/16 03:35:27;;;;;;;2.55;1.05;;;19.90;63.10;;;;;;5053828;28;20021;-73
2021/07/16 03:37:53;;;;;;;1.65;1.20;;;19.90;63.40;;;;;;5054459;28;20052;-73
2021/07/16 03:40:23;;;;;;;2.38;1.00;;;19.90;63.30;;;;;;5053753;28;20033;-72
2021/07/16 03:42:49;;;;;;;2.65;1.30;;;19.90;63.30;;;;;;5053964;28;20028;-73
2021/07/16 03:45:18;;;;;;;1.92;1.13;;;19.90;63.30;;;;;;5053876;28;20025;-73
2021/07/16 03:47:45;;;;;;;6.70;1.38;;;20.00;63.30;;;;;;5052435;28;20107;-73
2021/07/16 03:50:12;;;;;;;1.52;1.10;;;20.00;63.30;;;;;;5056433;28;20116;-73
2021/07/16 03:52:38;;;;;;;1.30;0.95;;;20.00;63.20;;;;;;5072370;28;20025;-73
2021/07/16 03:55:08;;;;;;;2.03;1.05;;;20.00;63.20;;;;;;5073719;28;20026;-72
2021/07/16 03:57:34;;;;;;;1.17;1.08;;;20.10;63.10;;;;;;5062978;28;20075;-73
2021/07/16 04:00:08;;;;;;;1.20;0.90;;;20.10;63.00;;;;;;5051977;28;20119;-73
2021/07/16 04:02:34;;;;;;;;;;;20.10;62.90;;;;;;5071034;28;20078;-73
2021/07/16 04:04:59;;;;;;;6.72;1.23;;;20.20;62.60;;;;;;5054074;28;20267;-73
2021/07/16 04:07:28;;;;;;;2.42;1.25;;;20.20;62.60;;;;;;5054624;28;20025;-73
2021/07/16 04:09:55;;;;;;;3.42;0.95;;;20.20;62.60;;;;;;5052571;28;20433;-72
2021/07/16 04:12:21;;;;;;;1.92;1.10;;;20.30;62.60;;;;;;5054131;28;20028;-73
2021/07/16 04:14:49;;;;;;;2.22;1.40;;;20.30;62.60;;;;;;5054231;28;20032;-73
2021/07/16 04:17:18;;;;;;;5.55;1.05;;;20.30;62.60;;;;;;5052762;28;20029;-73
2021/07/16 04:19:45;;;;;;;1.13;0.90;;;20.30;62.50;;;;;;5053826;28;20118;-73
2021/07/16 04:22:11;;;;;;;7.68;1.40;;;20.40;62.40;;;;;;5052495;28;20386;-73
2021/07/16 04:24:39;;;;;;;2.22;0.90;;;20.40;62.20;;;;;;5053488;28;20025;-73
2021/07/16 04:27:06;;;;;;;2.33;1.52;;;20.50;62.10;;;;;;5054047;28;20025;-73
2021/07/16 04:29:33;;;;;;;3.35;1.17;;;20.50;62.30;;;;;;5053831;28;20029;-73
2021/07/16 04:32:01;;;;;;;1.20;0.95;;;20.50;61.40;;;;;;5053967;28;20036;-73
2021/07/16 04:34:31;;;;;;;3.67;1.20;;;20.60;61.30;;;;;;5053645;28;20025;-73
2021/07/16 04:36:57;;;;;;;2.05;0.90;;;20.70;61.00;;;;;;5053705;28;20108;-73
2021/07/16 04:39:23;;;;;;;4.40;1.17;;;20.70;61.00;;;;;;5053592;28;20036;-72
2021/07/16 04:41:49;;;;;;;6.68;1.20;;;20.70;60.90;;;;;;5071519;28;20024;-73
2021/07/16 04:44:15;;;;;;;2.53;1.20;;;20.80;60.80;;;;;;5051238;28;20075;-73
2021/07/16 04:46:41;;;;;;;1.08;0.90;;;20.80;60.60;;;;;;5062873;28;20028;-73
2021/07/16 04:49:07;;;;;;;1.75;1.13;;;20.90;60.20;;;;;;5053113;28;20025;-73
2021/07/16 04:51:35;;;;;;;2.90;1.35;;;20.90;60.30;;;;;;5053199;28;20079;-73
2021/07/16 04:54:02;;;;;;;1.80;1.23;;;21.00;60.30;;;;;;5052692;28;20037;-73
2021/07/16 04:56:28;;;;;;;7.45;1.20;;;21.10;59.90;;;;;;5053451;28;20017;-73
2021/07/16 04:58:55;;;;;;;2.03;1.00;;;21.10;59.50;;;;;;5053375;28;20453;-73
2021/07/16 05:01:23;;;;;;;1.25;1.00;;;21.20;59.60;;;;;;5053383;28;20025;-73
2021/07/16 05:03:51;;;;;;;3.08;1.20;;;21.20;59.40;;;;;;5053167;28;20107;-73
2021/07/16 05:06:18;;;;;;;1.52;1.02;;;21.30;59.40;;;;;;5054081;28;20021;-73
2021/07/16 05:08:44;;;;;;;2.90;1.25;;;21.30;59.20;;;;;;5053189;28;20025;-73
2021/07/16 05:11:11;;;;;;;1.25;0.70;;;21.40;59.20;;;;;;5053021;28;20397;-73
2021/07/16 05:13:38;;;;;;;1.50;0.90;;;21.50;59.20;;;;;;5052732;28;20487;-72
2021/07/16 05:16:05;;;;;;;4.00;1.13;;;21.60;59.10;;;;;;5069831;28;20036;-73
2021/07/16 05:18:31;;;;;;;2.83;1.35;;;21.70;58.90;;;;;;5073147;28;20049;-73
2021/07/16 05:20:58;;;;;;;3.15;1.70;;;21.70;58.80;;;;;;5071358;28;20427;-73
2021/07/16 05:23:24;;;;;;;2.65;1.48;;;21.80;58.70;;;;;;5055142;28;20032;-73
2021/07/16 05:25:49;;;;;;;4.13;1.50;;;21.90;58.60;;;;;;5062224;28;20374;-73
2021/07/16 05:28:18;;;;;;;1.52;1.40;;;21.90;58.50;;;;;;5054233;28;20029;-73
2021/07/16 05:30:44;;;;;;;1.42;1.33;;;22.00;58.50;;;;;;5052979;28;20078;-73
2021/07/16 05:33:10;;;;;;;2.80;1.58;;;22.00;58.50;;;;;;5052737;28;20503;-73
2021/07/16 05:35:36;;;;;;;1.70;1.50;;;22.00;58.40;;;;;;5051965;28;20438;-73
2021/07/16 05:38:01;;;;;;;5.00;1.80;;;22.10;58.40;;;;;;5061844;28;20055;-74
2021/07/16 05:40:27;;;;;;;1.67;1.45;;;22.10;58.40;;;;;;5070178;28;20043;-73
2021/07/16 05:42:53;;;;;;;4.05;2.00;;;22.10;58.50;;;;;;5061885;28;20025;-73
2021/07/16 05:45:19;;;;;;;3.42;2.40;;;22.20;58.60;;;;;;5051485;28;20033;-73
2021/07/16 05:47:45;;;;;;;3.15;2.75;;;22.20;58.60;;;;;;5053968;28;20029;-73
2021/07/16 05:50:11;;;;;;;2.42;2.22;;;22.30;58.50;;;;;;5051779;28;20048;-73
2021/07/16 05:52:37;;;;;;;6.97;4.20;;;22.30;58.50;;;;;;5055645;28;20025;-73
2021/07/16 05:55:04;;;;;;;5.53;3.28;;;22.40;58.60;;;;;;5072667;28;20502;-73
2021/07/16 05:57:31;;;;;;;4.55;3.60;;;22.40;58.60;;;;;;5072688;28;20111;-74
2021/07/16 05:59:57;;;;;;;3.45;3.08;;;22.40;58.50;;;;;;5070778;28;20029;-73
2021/07/16 06:02:23;;;;;;;4.47;2.80;;;22.50;58.50;;;;;;5052435;28;20070;-73
2021/07/16 06:04:50;;;;;;;5.68;3.42;;;22.60;58.30;;;;;;5052438;28;20483;-73
2021/07/16 06:07:16;;;;;;;3.85;2.50;;;22.70;58.00;;;;;;5052510;28;20044;-73
2021/07/16 06:09:42;;;;;;;2.38;2.17;;;22.80;58.00;;;;;;5054803;28;20021;-73
2021/07/16 06:12:08;;;;;;;3.10;2.55;;;22.90;57.90;;;;;;5060142;28;20036;-73
2021/07/16 06:14:34;;;;;;;5.18;2.60;;;22.90;57.40;;;;;;5072303;28;20021;-73
2021/07/16 06:17:00;;;;;;;4.93;2.85;;;22.90;57.10;;;;;;5056306;28;20044;-73
2021/07/16 06:19:26;;;;;;;3.75;2.33;;;22.90;56.90;;;;;;5062942;28;20029;-73
2021/07/16 06:21:52;;;;;;;6.20;2.90;;;22.90;57.00;;;;;;5059184;28;20029;-74
2021/07/16 06:24:18;;;;;;;6.97;2.92;;;22.90;57.10;;;;;;5069628;28;20047;-73
2021/07/16 06:26:44;;;;;;;3.38;2.40;;;22.90;57.10;;;;;;5067250;28;20024;-73
2021/07/16 06:29:10;;;;;;;3.63;2.40;;;22.90;56.80;;;;;;5056199;28;20081;-74
2021/07/16 06:31:36;;;;;;;3.30;1.75;;;22.90;56.90;;;;;;5059267;28;20289;-73
2021/07/16 06:34:02;;;;;;;2.10;1.90;;;22.90;56.90;;;;;;5056161;28;20033;-73
2021/07/16 06:36:28;;;;;;;2.80;1.95;;;22.90;56.90;;;;;;5057921;28;20039;-73
2021/07/16 06:38:54;;;;;;;3.25;2.42;;;23.00;56.90;;;;;;5065601;28;20028;-74
2021/07/16 06:41:20;;;;;;;5.43;1.85;;;23.00;56.90;;;;;;5066027;28;20035;-74
2021/07/16 06:43:46;;;;;;;2.45;1.90;;;23.10;56.90;;;;;;5065131;28;20488;-73
2021/07/16 06:46:16;;;;;;;5.82;1.50;;;23.10;56.60;;;;;;5064550;28;20033;-73
2021/07/16 06:48:45;;;;;;;3.65;1.73;;;23.20;56.20;;;;;;5062621;28;20037;-73
2021/07/16 06:51:11;;;;;;;2.63;1.80;;;23.30;55.90;;;;;;5065405;28;20111;-74
2021/07/16 06:53:37;;;;;;;2.70;1.95;;;23.40;55.70;;;;;;5065926;28;20028;-73
2021/07/16 06:56:03;;;;;;;4.10;2.22;;;23.50;55.70;;;;;;5068339;28;20020;-74
2021/07/16 06:58:29;;;;;;;2.30;1.90;;;23.50;55.60;;;;;;5069034;28;20055;-74
2021/07/16 07:00:54;;;;;;;7.78;2.60;;;23.60;55.80;;;;;;5064579;28;20470;-74
2021/07/16 07:03:25;;;;;;;7.68;3.00;;;23.70;55.30;;;;;;5060358;28;20031;-74
2021/07/16 07:05:52;;;;;;;5.35;2.97;;;23.80;55.20;;;;;;5061049;28;20024;-74
2021/07/16 07:08:17;;;;;;;4.15;2.90;;;23.90;55.00;;;;;;5065686;28;20020;-73
2021/07/16 07:10:43;;;;;;;3.50;2.80;;;24.00;54.90;;;;;;5060010;28;20029;-74
2021/07/16 07:13:09;;;;;;;2.80;2.42;;;24.10;54.80;;;;;;5058305;28;20024;-74
2021/07/16 07:15:38;;;;;;;3.40;2.70;;;24.10;54.80;;;;;;5068242;28;20043;-73
2021/07/16 07:18:08;;;;;;;4.88;2.80;;;24.30;54.80;;;;;;5065253;28;20052;-73
2021/07/16 07:20:35;;;;;;;6.72;2.53;;;24.30;54.10;;;;;;5063855;28;20103;-74
2021/07/16 07:23:03;;;;;;;5.97;2.47;;;24.40;53.70;;;;;;5071301;28;20107;-74
2021/07/16 07:25:29;;;;;;;4.50;2.70;;;24.50;53.60;;;;;;5072823;28;20083;-74
2021/07/16 07:27:55;;;;;;;3.38;2.53;;;24.50;52.90;;;;;;5061879;28;20021;-74
2021/07/16 07:30:21;;;;;;;3.33;2.25;;;24.50;52.60;;;;;;5059901;28;20024;-74
2021/07/16 07:32:47;;;;;;;10.27;2.47;;;24.50;52.60;;;;;;5075031;28;20028;-74
2021/07/16 07:35:14;;;;;;;2.30;2.10;;;24.50;52.60;;;;;;5067146;28;20025;-74
2021/07/16 07:37:40;;;;;;;3.58;1.88;;;24.50;52.30;;;;;;5066083;28;20048;-74
2021/07/16 07:42:54;;;;;;;5.15;1.90;;;24.50;52.40;;;;;;5053871;28;20036;-74
2021/07/16 07:45:20;;;;;;;3.47;1.90;;;24.50;52.10;;;;;;5062609;28;20024;-74
2021/07/16 07:47:48;;;;;;;4.55;1.30;;;24.50;51.90;;;;;;5065059;28;20025;-73
2021/07/16 07:50:17;;;;;;;1.83;1.30;;;24.50;52.20;;;;;;5052882;28;20041;-75
2021/07/16 07:52:44;;;;;;;1.73;1.13;;;24.50;52.30;;;;;;5059307;28;20036;-75
2021/07/16 07:55:12;;;;;;;2.25;1.13;;;24.50;52.20;;;;;;5054769;28;20021;-75
2021/07/16 07:57:37;;;;;;;2.20;1.48;;;24.50;52.20;;;;;;5069422;28;20090;-74
2021/07/16 08:00:11;;;;;;;4.70;1.85;;;24.50;52.20;;;;;;5071836;28;20076;-75
2021/07/16 08:02:37;;;;;;;2.05;1.35;;;24.50;52.30;;;;;;5051282;28;20044;-75
2021/07/16 08:05:03;;;;;;;3.15;1.63;;;24.50;52.30;;;;;;5052782;28;20033;-74
2021/07/16 08:07:29;;;;;;;2.35;1.48;;;24.50;52.50;;;;;;5054971;28;20032;-74
2021/07/16 08:09:55;;;;;;;1.88;1.20;;;24.50;52.30;;;;;;5062242;28;20017;-75
2021/07/16 08:12:20;;;;;;;2.47;0.95;;;24.50;52.20;;;;;;5056174;28;20241;-74
2021/07/16 08:14:46;;;;;;;0.98;0.80;;;24.60;52.10;;;;;;5067631;28;20043;-74
2021/07/16 08:17:12;;;;;;;3.53;0.75;;;24.70;51.70;;;;;;5053795;28;20025;-75
2021/07/16 08:19:38;;;;;;;0.57;0.57;;;24.70;51.30;;;;;;5063177;28;20040;-74
2021/07/16 08:22:04;;;;;;;0.93;0.80;;;24.80;51.10;;;;;;5053637;28;20019;-75
2021/07/16 08:24:29;;;;;;;2.63;0.85;;;24.90;51.00;;;;;;5064800;28;20086;-74
2021/07/16 08:26:55;;;;;;;1.85;1.10;;;24.80;50.60;;;;;;5057498;28;20020;-75
2021/07/16 08:29:21;;;;;;;1.23;0.85;;;24.90;50.50;;;;;;5059934;28;20060;-74
2021/07/16 08:31:47;;;;;;;2.00;0.90;;;24.90;50.50;;;;;;5071453;28;20107;-74
2021/07/16 08:34:16;;;;;;;1.05;0.70;;;24.90;50.40;;;;;;5056503;28;20025;-75
2021/07/16 08:36:42;;;;;;;1.83;1.23;;;25.00;50.70;;;;;;5053655;28;20024;-74
2021/07/16 08:39:08;;;;;;;2.20;1.48;;;25.00;50.40;;;;;;5057276;28;20722;-74
2021/07/16 08:44:56;;;;;;;1.20;1.00;;;25.10;51.30;;;;;;5054872;28;20035;-74
2021/07/16 08:47:23;;;;;;;1.77;1.23;;;25.20;51.30;;;;;;5060453;28;20405;-75
2021/07/16 08:49:49;;;;;;;1.67;1.10;;;25.20;51.30;;;;;;5062939;28;20116;-74
2021/07/16 08:52:17;;;;;;;1.83;1.27;;;25.20;51.20;;;;;;5056947;28;20112;-75
2021/07/16 08:54:48;;;;;;;1.38;1.27;;;25.30;51.00;;;;;;5064146;28;20020;-75
2021/07/16 08:57:15;;;;;;;3.05;1.10;;;25.30;50.90;;;;;;5062361;28;20025;-76
2021/07/16 08:59:42;;;;;;;2.90;1.27;;;25.30;50.90;;;;;;5053489;28;20517;-74
2021/07/16 09:02:08;;;;;;;3.55;1.17;;;25.40;50.70;;;;;;5052319;28;20035;-74
2021/07/16 09:04:39;;;;;;;4.70;1.08;;;25.40;50.50;;;;;;5060825;28;20021;-70
2021/07/16 09:07:05;;;;;;;2.00;1.45;;;25.40;50.70;;;;;;5051504;28;20406;-73
2021/07/16 09:09:37;;;;;;;1.80;1.48;;;25.50;50.70;;;;;;5052369;28;20071;-74
2021/07/16 09:12:11;;;;;;;2.08;1.50;;;25.50;50.80;;;;;;5052650;28;20025;-73
2021/07/16 09:14:37;;;;;;;2.15;1.58;;;25.60;50.60;;;;;;5052190;28;20103;-73
2021/07/16 09:17:11;;;;;;;7.43;2.25;;;25.60;50.50;;;;;;5056555;28;20024;-73
2021/07/16 09:19:39;;;;;;;2.05;1.35;;;25.60;50.10;;;;;;5065552;28;20028;-74
2021/07/16 09:22:09;;;;;;;6.97;1.80;;;25.60;50.50;;;;;;5063865;28;20020;-74
2021/07/16 09:24:37;;;;;;;2.58;1.35;;;25.70;50.00;;;;;;5068560;28;20383;-73
2021/07/16 09:27:49;;;;;;;4.57;1.33;;;25.70;50.00;;;;;;5052545;28;20029;-73
2021/07/16 09:30:18;;;;;;;1.63;1.30;;;25.70;49.90;;;;;;5051032;28;20039;-73
2021/07/16 09:32:47;;;;;;;1.17;1.08;;;25.80;48.60;;;;;;5051165;28;20043;-74
2021/07/16 09:35:28;;;;;;;2.60;1.23;;;25.80;48.70;;;;;;5069365;28;20032;-74
2021/07/16 09:37:57;;;;;;;4.25;1.33;;;25.90;48.50;;;;;;5072591;28;20024;-74
2021/07/16 09:40:24;;;;;;;1.33;0.90;;;26.00;48.20;;;;;;5070450;28;20112;-74
2021/07/16 09:43:01;;;;;;;0.93;0.80;;;26.00;47.60;;;;;;5067867;28;20497;-73
2021/07/16 09:45:26;;;;;;;1.75;1.30;;;26.10;47.80;;;;;;5051808;28;20068;-74
2021/07/16 09:47:52;;;;;;;2.80;1.63;;;26.20;47.70;;;;;;5051462;28;20032;-73
2021/07/16 09:50:24;;;;;;;2.28;1.85;;;26.20;48.00;;;;;;5051282;28;20041;-71
2021/07/16 09:53:22;;;;;;;3.88;1.35;;;26.30;48.60;;;;;;5052171;28;20025;-73
2021/07/16 09:55:48;;;;;;;2.33;1.20;;;26.30;48.30;;;;;;5054501;28;20116;-73
2021/07/16 09:58:26;;;;;;;1.80;1.20;;;26.40;47.70;;;;;;5068930;28;20448;-74
2021/07/16 10:00:54;;;;;;;2.10;1.20;;;26.40;47.10;;;;;;5077538;28;20052;-73
2021/07/16 10:03:20;;;;;;;1.35;1.25;;;26.50;46.70;;;;;;5056177;28;20037;-73
2021/07/16 10:05:49;;;;;;;5.68;1.48;;;26.50;46.30;;;;;;5054927;28;20028;-73
2021/07/16 10:08:17;;;;;;;1.42;1.15;;;26.60;46.10;;;;;;5065433;28;20028;-74
2021/07/16 10:10:43;;;;;;;1.20;0.75;;;26.60;45.70;;;;;;5074812;28;20478;-74
2021/07/16 10:13:12;;;;;;;2.60;1.15;;;26.60;45.90;;;;;;5060537;28;20104;-73
2021/07/16 10:15:42;;;;;;;1.80;1.20;;;26.60;46.40;;;;;;5056062;28;20478;-74
2021/07/16 10:18:09;;;;;;;2.58;1.70;;;26.70;46.30;;;;;;5056185;28;20025;-74
2021/07/16 10:20:35;;;;;;;2.55;1.70;;;26.70;46.40;;;;;;5054463;28;20029;-75
2021/07/16 10:23:02;;;;;;;3.45;1.65;;;26.70;46.60;;;;;;5055711;28;20386;-74
2021/07/16 10:25:28;;;;;;;2.25;1.23;;;26.80;46.60;;;;;;5054407;28;20062;-74
2021/07/16 10:27:54;;;;;;;1.20;0.75;;;26.90;46.60;;;;;;5054060;28;20067;-74
2021/07/16 10:30:22;;;;;;;1.20;1.10;;;26.90;46.30;;;;;;5055337;28;20041;-73
2021/07/16 10:32:54;;;;;;;1.20;1.05;;;27.00;45.80;;;;;;5055604;28;20053;-73
2021/07/16 10:35:34;;;;;;;1.95;1.40;;;27.00;46.20;;;;;;5054099;28;20024;-74
2021/07/16 10:38:02;;;;;;;2.22;1.13;;;27.00;46.30;;;;;;5054100;28;20075;-74
2021/07/16 10:40:46;;;;;;;2.08;1.40;;;27.10;46.00;;;;;;5054052;28;20108;-73
2021/07/16 10:43:30;;;;;;;1.85;1.00;;;27.10;45.70;;;;;;5063512;28;20016;-74
2021/07/16 10:45:58;;;;;;;2.53;1.10;;;27.20;45.50;;;;;;5062413;28;20020;-74
2021/07/16 10:48:31;;;;;;;1.83;1.20;;;27.20;45.40;;;;;;5058369;28;20046;-74
2021/07/16 10:50:58;;;;;;;0.97;0.87;;;27.20;45.60;;;;;;5065915;28;20115;-74
2021/07/16 10:53:30;;;;;;;2.15;0.88;;;27.30;45.60;;;;;;5059212;28;20357;-74
2021/07/16 10:55:55;;;;;;;1.38;1.08;;;27.30;45.50;;;;;;5063080;28;20021;-74
2021/07/16 10:58:25;;;;;;;3.60;1.40;;;27.40;45.10;;;;;;5063972;28;20517;-74
2021/07/16 11:01:02;;;;;;;2.35;1.27;;;27.40;45.20;;;;;;5062416;28;20027;-74
2021/07/16 11:03:52;;;;;;;1.05;0.93;;;27.50;45.50;;;;;;5058528;28;20100;-74
2021/07/16 11:06:20;;;;;;;2.33;1.15;;;27.50;45.60;;;;;;5053703;28;20112;-73
2021/07/16 11:08:45;;;;;;;1.48;0.88;;;27.60;45.10;;;;;;5059639;28;20103;-74
2021/07/16 11:11:12;;;;;;;3.38;0.70;;;27.60;45.40;;;;;;5061538;28;20537;-73
2021/07/16 11:13:59;;;;;;;4.97;1.17;;;27.70;45.30;;;;;;5060275;28;20029;-74
2021/07/16 11:16:25;;;;;;;3.80;1.13;;;27.70;45.00;;;;;;5060171;28;20021;-73
2021/07/16 11:19:07;;;;;;;0.80;0.80;;;27.80;44.60;;;;;;5060300;28;20024;-74
2021/07/16 11:21:39;;;;;;;1.33;1.00;;;27.80;44.10;;;;;;5059631;28;20470;-74
2021/07/16 11:24:06;;;;;;;1.23;1.13;;;27.90;43.80;;;;;;5058726;28;20028;-73
2021/07/16 11:26:45;;;;;;;1.20;1.00;;;27.90;43.90;;;;;;5059108;28;20013;-73
2021/07/16 11:29:11;;;;;;;2.63;1.38;;;28.00;43.90;;;;;;5059628;28;20108;-74
2021/07/16 11:31:37;;;;;;;6.40;1.20;;;28.10;43.60;;;;;;5063712;28;20111;-73
2021/07/16 11:34:05;;;;;;;1.33;1.17;;;28.10;43.40;;;;;;5060239;28;20112;-72
2021/07/16 11:36:31;;;;;;;0.95;0.77;;;28.20;43.40;;;;;;5056484;28;20492;-74
2021/07/16 11:38:57;;;;;;;1.88;0.95;;;28.30;43.10;;;;;;5060631;28;20025;-74
2021/07/16 11:41:33;;;;;;;2.10;0.98;;;28.30;42.50;;;;;;5064767;28;20020;-74
2021/07/16 11:44:00;;;;;;;7.97;0.80;;;28.20;41.80;;;;;;5056753;28;20031;-73
2021/07/16 11:46:30;;;;;;;2.22;0.95;;;28.30;42.20;;;;;;5059544;28;20059;-73
2021/07/16 11:48:59;;;;;;;1.63;0.90;;;28.30;41.50;;;;;;5061515;28;21478;-73
2021/07/16 11:51:29;;;;;;;2.58;1.60;;;28.20;41.80;;;;;;5023784;28;1179556;-74
2021/07/16 11:53:55;;;;;;;1.83;1.00;;;28.20;42.00;;;;;;5059860;28;20363;-74
2021/07/16 11:56:23;;;;;;;1.23;1.00;;;28.30;41.50;;;;;;5058650;28;20111;-74
2021/07/16 11:58:52;;;;;;;5.82;1.13;;;28.30;41.30;;;;;;5066029;28;20017;-74
2021/07/16 12:01:18;;;;;;;5.05;2.50;;;28.40;40.80;;;;;;5065957;28;20036;-75
2021/07/16 12:03:44;;;;;;;2.38;1.48;;;28.50;41.30;;;;;;5065976;28;20041;-74
2021/07/16 12:06:09;;;;;;;2.05;1.63;;;28.50;40.40;;;;;;5065799;28;20021;-74
2021/07/16 12:08:39;;;;;;;2.10;1.60;;;28.70;41.00;;;;;;5066016;28;20024;-74
2021/07/16 12:11:10;;;;;;;3.28;2.55;;;28.80;40.30;;;;;;5059375;28;20025;-74
2021/07/16 12:13:37;;;;;;;2.13;1.13;;;29.00;40.60;;;;;;5059572;28;20474;-74
2021/07/16 12:16:16;;;;;;;1.60;1.33;;;29.30;40.10;;;;;;5057204;28;20029;-74
2021/07/16 12:18:42;;;;;;;5.78;1.63;;;29.40;40.20;;;;;;5057973;28;20056;-74
2021/07/16 12:21:13;;;;;;;1.17;1.08;;;29.70;39.40;;;;;;5062227;28;20025;-74
2021/07/16 12:23:40;;;;;;;2.88;1.20;;;29.90;39.70;;;;;;5064361;28;20028;-74
2021/07/16 12:26:23;;;;;;;3.38;1.00;;;30.20;39.60;;;;;;5058913;28;20115;-73
2021/07/16 12:29:02;;;;;;;1.38;0.95;;;30.30;38.40;;;;;;5060149;28;20028;-74
2021/07/16 12:31:29;;;;;;;1.95;1.40;;;30.40;37.80;;;;;;5059103;28;20040;-74
2021/07/16 12:33:55;;;;;;;2.28;1.00;;;30.40;36.50;;;;;;5064578;28;20495;-73
2021/07/16 12:36:26;;;;;;;0.98;0.80;;;30.30;36.50;;;;;;5063717;28;20492;-73
2021/07/16 12:38:53;;;;;;;1.58;1.10;;;30.30;36.50;;;;;;5062941;28;20029;-75
2021/07/16 12:41:22;;;;;;;1.60;0.90;;;30.20;36.90;;;;;;5057922;28;20025;-74
2021/07/16 12:43:48;;;;;;;1.15;1.02;;;30.00;37.60;;;;;;5060574;28;20033;-73
2021/07/16 12:46:26;;;;;;;2.17;1.58;;;30.00;38.70;;;;;;5060713;28;20024;-72
2021/07/16 12:48:52;;;;;;;1.48;1.27;;;29.80;39.20;;;;;;5058100;28;20021;-73
2021/07/16 12:51:19;;;;;;;2.03;1.30;;;29.70;38.50;;;;;;5063076;28;20422;-72
2021/07/16 12:53:53;;;;;;;1.52;1.10;;;29.50;38.70;;;;;;5063548;28;20033;-73
2021/07/16 12:56:20;;;;;;;;;;;29.30;39.10;;;;;;5059011;28;20017;-73
2021/07/16 12:58:48;;;;;;;1.67;1.00;;;29.20;39.30;;;;;;5059408;28;19951;-74